Time;durP1;ratioP1;P1;durP2;ratioP2;P2;SDS_P1;SDS_P2;PMS_P1;PMS_P2;Temp;Humidity;BMP_temperature;BMP_pressure;BME280_temperature;BME280_humidity;BME280_pressure;Samples;Min_cycle;Max_cycle;Signal;HPM_P1;HPM_P2
2020/12/21 00:01:13;;;;;;;26.27;16.53;;;;;;;;;;5096100;28;20506;-81
2020/12/21 00:03:39;;;;;;;25.37;17.27;;;;;;;;;;5096391;28;20206;-82
2020/12/21 00:06:07;;;;;;;29.83;16.97;;;;;;;;;;5096230;28;20209;-82
2020/12/21 00:08:33;;;;;;;23.87;16.33;;;;;;;;;;5096230;28;20236;-82
2020/12/21 00:10:59;;;;;;;24.03;16.33;;;;;;;;;;5096211;28;20241;-83
2020/12/21 00:13:27;;;;;;;21.47;15.30;;;;;;;;;;5095807;28;20224;-82
2020/12/21 00:15:54;;;;;;;25.47;16.40;;;;;;;;;;5096121;28;20213;-84
2020/12/21 00:18:21;;;;;;;22.90;15.97;;;;;;;;;;5095599;28;20233;-81
2020/12/21 00:20:47;;;;;;;23.70;15.13;;;;;;;;;;5096507;28;20210;-82
2020/12/21 00:23:13;;;;;;;20.57;14.80;;;;;;;;;;5096081;28;20874;-82
2020/12/21 00:25:39;;;;;;;22.57;14.60;;;;;;;;;;5096089;28;20236;-82
2020/12/21 00:28:05;;;;;;;22.87;14.40;;;;;;;;;;5095811;28;20622;-82
2020/12/21 00:30:31;;;;;;;19.73;14.47;;;;;;;;;;5095631;28;20256;-82
2020/12/21 00:32:58;;;;;;;19.73;14.37;;;;;;;;;;5095479;28;20248;-82
2020/12/21 00:35:24;;;;;;;23.47;14.33;;;;;;;;;;5095888;28;20229;-82
2020/12/21 00:37:50;;;;;;;18.70;13.90;;;;;;;;;;5095155;28;20234;-82
2020/12/21 00:40:16;;;;;;;20.60;13.70;;;;;;;;;;5095539;28;20538;-80
2020/12/21 00:42:44;;;;;;;18.83;13.50;;;;;;;;;;5095648;28;20233;-81
2020/12/21 00:45:10;;;;;;;18.90;13.67;;;;;;;;;;5095797;28;20232;-81
2020/12/21 00:47:36;;;;;;;19.53;14.33;;;;;;;;;;5095526;28;20229;-82
2020/12/21 00:50:03;;;;;;;20.60;13.90;;;;;;;;;;5094556;28;20232;-81
2020/12/21 00:52:29;;;;;;;21.03;14.07;;;;;;;;;;5095365;28;20237;-81
2020/12/21 00:54:56;;;;;;;21.70;13.80;;;;;;;;;;5095672;28;20298;-80
2020/12/21 00:57:22;;;;;;;18.90;13.13;;;;;;;;;;5095130;28;20241;-82
2020/12/21 00:59:48;;;;;;;20.30;14.03;;;;;;;;;;5095360;28;20553;-82
2020/12/21 01:02:14;;;;;;;20.53;12.90;;;;;;;;;;5094997;28;20254;-82
2020/12/21 01:04:40;;;;;;;22.40;13.87;;;;;;;;;;5095254;28;20233;-80
2020/12/21 01:07:07;;;;;;;21.87;14.03;;;;;;;;;;5095244;28;20248;-81
2020/12/21 01:09:33;;;;;;;25.03;14.83;;;;;;;;;;5095476;28;20225;-81
2020/12/21 01:11:59;;;;;;;20.87;13.53;;;;;;;;;;5095078;28;20264;-81
2020/12/21 01:14:25;;;;;;;18.33;13.30;;;;;;;;;;5095167;28;20254;-82
2020/12/21 01:16:52;;;;;;;21.57;13.37;;;;;;;;;;5095144;28;20237;-81
2020/12/21 01:19:18;;;;;;;16.30;13.63;;;;;;;;;;5095401;28;20244;-81
2020/12/21 01:21:44;;;;;;;19.33;13.13;;;;;;;;;;5094907;28;20645;-81
2020/12/21 01:24:11;;;;;;;18.40;13.80;;;;;;;;;;5095492;28;20229;-82
2020/12/21 01:26:37;;;;;;;19.23;12.93;;;;;;;;;;5095235;28;20548;-81
2020/12/21 01:29:04;;;;;;;16.60;12.40;;;;;;;;;;5095219;28;20237;-81
2020/12/21 01:31:30;;;;;;;15.20;11.83;;;;;;;;;;5094964;28;20256;-81
2020/12/21 01:33:56;;;;;;;16.40;12.13;;;;;;;;;;5094986;28;20680;-81
2020/12/21 01:36:22;;;;;;;16.23;11.33;;;;;;;;;;5094836;28;20233;-81
2020/12/21 01:38:48;;;;;;;12.80;9.67;;;;;;;;;;5095121;28;20618;-81
2020/12/21 01:41:15;;;;;;;16.50;10.47;;;;;;;;;;5094893;28;20232;-81
2020/12/21 01:43:41;;;;;;;13.70;10.73;;;;;;;;;;5095169;28;20213;-82
2020/12/21 01:46:08;;;;;;;15.43;10.97;;;;;;;;;;5094803;28;20672;-81
2020/12/21 01:48:35;;;;;;;14.70;10.63;;;;;;;;;;5094891;28;20232;-81
2020/12/21 01:51:01;;;;;;;16.23;11.33;;;;;;;;;;5094461;28;20299;-81
2020/12/21 01:53:27;;;;;;;19.83;11.83;;;;;;;;;;5094557;28;20551;-81
2020/12/21 01:55:56;;;;;;;16.37;11.10;;;;;;;;;;5094820;28;20233;-81
2020/12/21 01:58:23;;;;;;;16.30;11.57;;;;;;;;;;5094737;28;20236;-81
2020/12/21 02:00:49;;;;;;;14.53;10.77;;;;;;;;;;5094825;28;20201;-81
2020/12/21 02:03:15;;;;;;;17.37;10.97;;;;;;;;;;5094744;28;20582;-81
2020/12/21 02:05:42;;;;;;;11.83;9.73;;;;;;;;;;5094466;28;20615;-81
2020/12/21 02:08:08;;;;;;;14.37;10.07;;;;;;;;;;5093428;28;20270;-81
2020/12/21 02:10:34;;;;;;;13.87;9.70;;;;;;;;;;5094475;28;20233;-81
2020/12/21 02:13:00;;;;;;;16.53;11.33;;;;;;;;;;5095229;28;20201;-81
2020/12/21 02:15:27;;;;;;;17.13;10.50;;;;;;;;;;5098473;28;20233;-81
2020/12/21 02:17:53;;;;;;;15.53;10.47;;;;;;;;;;5098073;28;20206;-81
2020/12/21 02:20:27;;;;;;;14.93;10.33;;;;;;;;;;5097155;28;20519;-81
2020/12/21 02:22:53;;;;;;;14.67;10.13;;;;;;;;;;5098173;28;20263;-81
2020/12/21 02:25:19;;;;;;;13.80;10.60;;;;;;;;;;5098232;28;20513;-81
2020/12/21 02:27:45;;;;;;;13.37;10.60;;;;;;;;;;5098238;28;20236;-81
2020/12/21 02:30:11;;;;;;;14.40;10.17;;;;;;;;;;5098196;28;20610;-81
2020/12/21 02:32:37;;;;;;;15.83;11.17;;;;;;;;;;5097542;28;20256;-81
2020/12/21 02:35:03;;;;;;;13.87;11.07;;;;;;;;;;5098073;28;20225;-81
2020/12/21 02:37:30;;;;;;;14.03;10.73;;;;;;;;;;5098111;28;20208;-81
2020/12/21 02:39:56;;;;;;;14.27;10.33;;;;;;;;;;5098021;28;20245;-81
2020/12/21 02:42:22;;;;;;;13.87;10.80;;;;;;;;;;5097997;28;20206;-81
2020/12/21 02:44:54;;;;;;;14.57;11.10;;;;;;;;;;5097784;28;20174;-81
2020/12/21 02:47:20;;;;;;;16.67;10.97;;;;;;;;;;5097472;28;20637;-81
2020/12/21 02:49:46;;;;;;;14.90;10.87;;;;;;;;;;5097623;28;20232;-81
2020/12/21 02:52:13;;;;;;;15.30;11.20;;;;;;;;;;5097606;28;20253;-80
2020/12/21 02:54:39;;;;;;;13.73;10.13;;;;;;;;;;5097937;28;20210;-82
2020/12/21 02:57:06;;;;;;;12.50;10.57;;;;;;;;;;5097105;28;20240;-81
2020/12/21 02:59:32;;;;;;;11.77;9.93;;;;;;;;;;5097765;28;20226;-81
2020/12/21 03:01:58;;;;;;;12.37;9.93;;;;;;;;;;5096936;28;20225;-82
2020/12/21 03:04:24;;;;;;;14.20;11.23;;;;;;;;;;5097554;28;20225;-81
2020/12/21 03:06:50;;;;;;;19.63;11.60;;;;;;;;;;5097052;28;20636;-81
2020/12/21 03:09:16;;;;;;;17.67;10.70;;;;;;;;;;5097616;28;20233;-81
2020/12/21 03:11:45;;;;;;;14.67;11.17;;;;;;;;;;5097376;28;20642;-81
2020/12/21 03:14:11;;;;;;;15.20;10.20;;;;;;;;;;5097741;28;20240;-82
2020/12/21 03:16:37;;;;;;;12.63;10.50;;;;;;;;;;5096184;28;20642;-82
2020/12/21 03:19:04;;;;;;;14.70;11.23;;;;;;;;;;5097221;28;20230;-81
2020/12/21 03:21:30;;;;;;;15.10;10.80;;;;;;;;;;5096910;28;20218;-81
2020/12/21 03:23:56;;;;;;;13.80;11.23;;;;;;;;;;5096878;28;20234;-81
2020/12/21 03:26:23;;;;;;;17.17;11.83;;;;;;;;;;5096211;28;20233;-82
2020/12/21 03:28:49;;;;;;;16.90;12.30;;;;;;;;;;5096910;28;20234;-81
2020/12/21 03:31:16;;;;;;;18.23;13.10;;;;;;;;;;5096488;28;20237;-81
2020/12/21 03:33:42;;;;;;;17.57;12.43;;;;;;;;;;5096828;28;20260;-81
2020/12/21 03:36:08;;;;;;;16.07;12.63;;;;;;;;;;5096169;28;20209;-81
2020/12/21 03:38:35;;;;;;;16.43;11.70;;;;;;;;;;5096562;28;20225;-81
2020/12/21 03:41:01;;;;;;;14.63;12.10;;;;;;;;;;5096973;28;20226;-81
2020/12/21 03:43:27;;;;;;;15.30;12.03;;;;;;;;;;5097023;28;20550;-81
2020/12/21 03:45:55;;;;;;;16.73;12.13;;;;;;;;;;5096880;28;20240;-82
2020/12/21 03:48:21;;;;;;;14.83;11.90;;;;;;;;;;5097017;28;20229;-81
2020/12/21 03:50:47;;;;;;;15.43;12.17;;;;;;;;;;5096659;28;20598;-80
2020/12/21 03:53:13;;;;;;;16.10;12.57;;;;;;;;;;5098391;28;20245;-80
2020/12/21 03:55:39;;;;;;;17.17;12.23;;;;;;;;;;5102130;28;20201;-81
2020/12/21 03:58:05;;;;;;;16.13;11.37;;;;;;;;;;5096360;28;20237;-81
2020/12/21 04:00:31;;;;;;;14.77;11.53;;;;;;;;;;5096028;28;20245;-81
2020/12/21 04:02:58;;;;;;;14.93;11.83;;;;;;;;;;5095875;28;20225;-81
2020/12/21 04:05:24;;;;;;;14.50;12.27;;;;;;;;;;5096065;28;20233;-81
2020/12/21 04:07:50;;;;;;;17.03;11.80;;;;;;;;;;5096222;28;20550;-81
2020/12/21 04:10:16;;;;;;;15.73;12.00;;;;;;;;;;5096269;28;20240;-81
2020/12/21 04:12:43;;;;;;;14.37;11.53;;;;;;;;;;5096151;28;20257;-82
2020/12/21 04:15:09;;;;;;;14.17;11.50;;;;;;;;;;5096272;28;20236;-81
2020/12/21 04:17:35;;;;;;;17.57;11.97;;;;;;;;;;5096217;28;20226;-81
2020/12/21 04:20:03;;;;;;;13.97;11.50;;;;;;;;;;5096274;28;20236;-82
2020/12/21 04:22:29;;;;;;;12.90;10.90;;;;;;;;;;5095758;28;20217;-81
2020/12/21 04:24:55;;;;;;;14.77;10.97;;;;;;;;;;5096002;28;20230;-81
2020/12/21 04:27:21;;;;;;;14.63;11.33;;;;;;;;;;5095747;28;20236;-81
2020/12/21 04:29:47;;;;;;;18.77;12.67;;;;;;;;;;5096079;28;20225;-81
2020/12/21 04:32:13;;;;;;;15.77;12.67;;;;;;;;;;5096017;28;20250;-81
2020/12/21 04:34:39;;;;;;;15.87;12.27;;;;;;;;;;5095341;28;20249;-81
2020/12/21 04:37:06;;;;;;;15.57;12.63;;;;;;;;;;5095193;28;20530;-82
2020/12/21 04:39:32;;;;;;;19.97;13.13;;;;;;;;;;5095792;28;20228;-81
2020/12/21 04:41:59;;;;;;;17.27;12.77;;;;;;;;;;5095104;28;20225;-81
2020/12/21 04:44:26;;;;;;;20.10;13.47;;;;;;;;;;5095915;28;20246;-80
2020/12/21 04:46:52;;;;;;;16.83;12.90;;;;;;;;;;5094877;28;20222;-81
2020/12/21 04:49:18;;;;;;;19.10;13.63;;;;;;;;;;5095615;28;20234;-81
2020/12/21 04:51:46;;;;;;;16.33;13.20;;;;;;;;;;5095295;28;20253;-81
2020/12/21 04:54:13;;;;;;;17.07;13.17;;;;;;;;;;5095969;28;20205;-81
2020/12/21 04:56:39;;;;;;;18.13;13.73;;;;;;;;;;5094815;28;20494;-81
2020/12/21 04:59:05;;;;;;;15.83;13.80;;;;;;;;;;5095200;28;20210;-81
2020/12/21 05:01:31;;;;;;;19.50;13.97;;;;;;;;;;5094943;28;20226;-81
2020/12/21 05:03:57;;;;;;;17.03;13.37;;;;;;;;;;5094335;28;20564;-81
2020/12/21 05:06:23;;;;;;;16.73;13.93;;;;;;;;;;5095207;28;20665;-81
2020/12/21 05:09:00;;;;;;;20.43;13.83;;;;;;;;;;5095673;28;20600;-81
2020/12/21 05:11:27;;;;;;;16.13;12.70;;;;;;;;;;5094708;28;20617;-81
2020/12/21 05:14:03;;;;;;;14.70;12.90;;;;;;;;;;5095673;28;20226;-81
2020/12/21 05:16:29;;;;;;;18.10;13.27;;;;;;;;;;5095353;28;20202;-81
2020/12/21 05:18:55;;;;;;;16.93;14.10;;;;;;;;;;5095536;28;20210;-81
2020/12/21 05:21:25;;;;;;;17.53;13.10;;;;;;;;;;5094788;28;20263;-81
2020/12/21 05:23:55;;;;;;;16.30;13.30;;;;;;;;;;5095562;28;20229;-81
2020/12/21 05:26:25;;;;;;;17.00;13.23;;;;;;;;;;5095249;28;20241;-81
2020/12/21 05:28:52;;;;;;;16.53;13.03;;;;;;;;;;5095376;28;20225;-82
2020/12/21 05:31:18;;;;;;;17.53;12.63;;;;;;;;;;5094618;28;20225;-81
2020/12/21 05:33:45;;;;;;;15.63;12.80;;;;;;;;;;5094898;28;20262;-81
2020/12/21 05:36:12;;;;;;;14.93;11.77;;;;;;;;;;5094339;28;20236;-82
2020/12/21 05:38:40;;;;;;;13.90;12.37;;;;;;;;;;5095285;28;20255;-82
2020/12/21 05:41:09;;;;;;;19.00;12.70;;;;;;;;;;5094572;28;20639;-83
2020/12/21 05:43:37;;;;;;;18.47;12.07;;;;;;;;;;5094926;28;20206;-81
2020/12/21 05:46:08;;;;;;;15.93;12.30;;;;;;;;;;5094957;28;20248;-82
2020/12/21 05:48:35;;;;;;;17.90;11.43;;;;;;;;;;5096416;28;20202;-82
2020/12/21 05:51:02;;;;;;;18.97;13.23;;;;;;;;;;5098858;28;20233;-81
2020/12/21 05:53:38;;;;;;;14.47;12.97;;;;;;;;;;5098963;28;20245;-81
2020/12/21 05:56:05;;;;;;;16.37;12.97;;;;;;;;;;5098269;28;20284;-83
2020/12/21 05:58:32;;;;;;;17.20;13.17;;;;;;;;;;5098617;28;20230;-82
2020/12/21 06:01:02;;;;;;;14.30;12.27;;;;;;;;;;5098613;28;20237;-81
2020/12/21 06:03:36;;;;;;;18.57;13.70;;;;;;;;;;5098955;28;20230;-81
2020/12/21 06:06:06;;;;;;;14.70;12.40;;;;;;;;;;5098199;28;20234;-81
2020/12/21 06:08:33;;;;;;;14.33;12.50;;;;;;;;;;5097776;28;20225;-81
2020/12/21 06:11:07;;;;;;;14.23;12.17;;;;;;;;;;5097796;28;20218;-81
2020/12/21 06:13:35;;;;;;;14.60;12.73;;;;;;;;;;5098368;28;20668;-82
2020/12/21 06:16:01;;;;;;;16.17;13.30;;;;;;;;;;5098147;28;20233;-82
2020/12/21 06:18:27;;;;;;;17.63;13.53;;;;;;;;;;5098566;28;20231;-81
2020/12/21 06:20:54;;;;;;;21.60;15.40;;;;;;;;;;5098427;28;20233;-82
2020/12/21 06:23:28;;;;;;;68.00;17.47;;;;;;;;;;5098500;28;20229;-82
2020/12/21 06:25:54;;;;;;;47.40;16.43;;;;;;;;;;5098099;28;20229;-82
2020/12/21 06:28:27;;;;;;;31.37;15.10;;;;;;;;;;5098707;28;20228;-81
2020/12/21 06:30:53;;;;;;;18.90;14.80;;;;;;;;;;5097807;28;20229;-82
2020/12/21 06:33:19;;;;;;;24.13;15.23;;;;;;;;;;5097671;28;20249;-82
2020/12/21 06:35:46;;;;;;;43.30;16.53;;;;;;;;;;5097774;28;20618;-81
2020/12/21 06:38:12;;;;;;;53.60;15.70;;;;;;;;;;5098209;28;20237;-82
2020/12/21 06:40:39;;;;;;;74.33;15.87;;;;;;;;;;5097319;28;20229;-82
2020/12/21 06:43:11;;;;;;;43.47;17.00;;;;;;;;;;5098090;28;20606;-82
2020/12/21 06:45:37;;;;;;;82.50;16.87;;;;;;;;;;5097182;28;20206;-82
2020/12/21 06:48:03;;;;;;;135.87;20.47;;;;;;;;;;5097982;28;20230;-82
2020/12/21 06:50:29;;;;;;;96.10;17.10;;;;;;;;;;5097471;28;20232;-82
2020/12/21 06:52:55;;;;;;;87.10;17.07;;;;;;;;;;5097746;28;20256;-82
2020/12/21 06:55:32;;;;;;;102.90;18.37;;;;;;;;;;5097609;28;20202;-81
2020/12/21 06:57:58;;;;;;;85.73;16.13;;;;;;;;;;5097530;28;20486;-82
2020/12/21 07:00:25;;;;;;;109.83;16.17;;;;;;;;;;5096930;28;20236;-82
2020/12/21 07:02:51;;;;;;;85.60;15.00;;;;;;;;;;5097836;28;20538;-79
2020/12/21 07:05:17;;;;;;;150.83;17.80;;;;;;;;;;5097484;28;20198;-80
2020/12/21 07:07:43;;;;;;;74.20;16.33;;;;;;;;;;5097588;28;20202;-80
2020/12/21 07:10:11;;;;;;;118.17;15.77;;;;;;;;;;5097459;28;20210;-84
2020/12/21 07:12:38;;;;;;;104.03;16.23;;;;;;;;;;5097291;28;20253;-83
2020/12/21 07:15:05;;;;;;;61.17;15.60;;;;;;;;;;5097070;28;20232;-80
2020/12/21 07:17:31;;;;;;;142.00;16.47;;;;;;;;;;5097130;28;20235;-83
2020/12/21 07:19:58;;;;;;;82.23;13.73;;;;;;;;;;5096967;28;20260;-83
2020/12/21 07:22:25;;;;;;;33.73;13.67;;;;;;;;;;5097202;28;20240;-81
2020/12/21 07:24:51;;;;;;;58.30;13.53;;;;;;;;;;5096945;28;20225;-82
2020/12/21 07:27:17;;;;;;;29.90;12.63;;;;;;;;;;5096740;28;20649;-83
2020/12/21 07:29:44;;;;;;;30.33;12.77;;;;;;;;;;5096468;28;20240;-82
2020/12/21 07:32:10;;;;;;;23.47;13.40;;;;;;;;;;5096913;28;20248;-82
2020/12/21 07:34:36;;;;;;;38.77;13.67;;;;;;;;;;5096602;28;20214;-83
2020/12/21 07:37:06;;;;;;;14.43;12.70;;;;;;;;;;5096655;28;20244;-83
2020/12/21 07:39:33;;;;;;;15.70;12.13;;;;;;;;;;5096749;28;20206;-83
2020/12/21 07:42:03;;;;;;;19.63;13.00;;;;;;;;;;5096727;28;20248;-82
2020/12/21 07:44:30;;;;;;;13.13;11.83;;;;;;;;;;5096411;28;20206;-81
2020/12/21 07:46:58;;;;;;;15.80;12.47;;;;;;;;;;5096120;28;20205;-84
2020/12/21 07:49:24;;;;;;;13.37;11.97;;;;;;;;;;5096312;28;20248;-85
2020/12/21 07:51:57;;;;;;;13.20;11.80;;;;;;;;;;5096109;28;20229;-84
2020/12/21 07:54:23;;;;;;;13.47;12.07;;;;;;;;;;5096460;28;20626;-84
2020/12/21 07:56:58;;;;;;;12.77;11.03;;;;;;;;;;5096455;28;20237;-84
2020/12/21 07:59:24;;;;;;;13.00;10.73;;;;;;;;;;5096436;28;20244;-84
2020/12/21 08:01:56;;;;;;;18.37;11.57;;;;;;;;;;5096008;28;20225;-84
2020/12/21 08:04:23;;;;;;;12.60;10.90;;;;;;;;;;5096521;28;20233;-83
2020/12/21 08:06:49;;;;;;;13.20;11.07;;;;;;;;;;5095656;28;20240;-84
2020/12/21 08:09:15;;;;;;;14.07;12.07;;;;;;;;;;5096432;28;20210;-83
2020/12/21 08:11:41;;;;;;;15.90;13.10;;;;;;;;;;5094958;28;20240;-85
2020/12/21 08:14:08;;;;;;;16.97;13.20;;;;;;;;;;5096359;28;20197;-84
2020/12/21 08:16:34;;;;;;;17.63;13.13;;;;;;;;;;5095719;28;20540;-85
2020/12/21 08:19:01;;;;;;;23.77;15.63;;;;;;;;;;5095989;28;20284;-85
2020/12/21 08:21:28;;;;;;;27.50;16.57;;;;;;;;;;5095809;28;20636;-84
2020/12/21 08:23:55;;;;;;;28.20;16.27;;;;;;;;;;5095839;28;20240;-85
2020/12/21 08:26:22;;;;;;;23.67;15.43;;;;;;;;;;5095772;28;20491;-83
2020/12/21 08:28:49;;;;;;;21.87;14.87;;;;;;;;;;5094900;28;20278;-84
2020/12/21 08:31:18;;;;;;;17.97;14.50;;;;;;;;;;5095566;28;20233;-83
2020/12/21 08:33:55;;;;;;;15.83;13.13;;;;;;;;;;5094225;28;20511;-84
2020/12/21 08:36:22;;;;;;;14.43;12.93;;;;;;;;;;5094436;28;20613;-84
2020/12/21 08:38:50;;;;;;;13.77;11.40;;;;;;;;;;5095381;28;20229;-85
2020/12/21 08:41:16;;;;;;;14.07;11.43;;;;;;;;;;5095670;28;20229;-84
2020/12/21 08:43:42;;;;;;;12.40;10.33;;;;;;;;;;5095482;28;20229;-85
2020/12/21 08:46:09;;;;;;;11.70;10.33;;;;;;;;;;5095810;28;20229;-84
2020/12/21 08:48:36;;;;;;;10.80;9.67;;;;;;;;;;5095411;28;20311;-84
2020/12/21 08:51:02;;;;;;;10.70;9.37;;;;;;;;;;5095564;28;20205;-85
2020/12/21 08:53:28;;;;;;;10.30;9.17;;;;;;;;;;5095183;28;20257;-84
2020/12/21 08:55:55;;;;;;;11.07;9.10;;;;;;;;;;5095350;28;20255;-85
2020/12/21 08:58:21;;;;;;;12.93;9.83;;;;;;;;;;5095275;28;20676;-85
2020/12/21 09:00:47;;;;;;;10.50;9.43;;;;;;;;;;5095206;28;20228;-84
2020/12/21 09:03:14;;;;;;;10.37;9.23;;;;;;;;;;5095074;28;20617;-84
2020/12/21 09:05:40;;;;;;;11.00;9.87;;;;;;;;;;5094824;28;20232;-84
2020/12/21 09:08:06;;;;;;;10.53;8.93;;;;;;;;;;5094756;28;20240;-83
2020/12/21 09:10:32;;;;;;;14.10;9.80;;;;;;;;;;5094654;28;20225;-84
2020/12/21 09:12:59;;;;;;;9.70;8.80;;;;;;;;;;5094799;28;20630;-84
2020/12/21 09:15:26;;;;;;;10.47;9.27;;;;;;;;;;5094771;28;20232;-84
2020/12/21 09:17:52;;;;;;;10.03;9.03;;;;;;;;;;5094908;28;20202;-84
2020/12/21 09:20:18;;;;;;;9.93;8.60;;;;;;;;;;5093923;28;20237;-84
2020/12/21 09:22:45;;;;;;;10.20;8.83;;;;;;;;;;5095341;28;20233;-84
2020/12/21 09:25:13;;;;;;;9.53;7.87;;;;;;;;;;5098897;28;20226;-84
2020/12/21 09:27:39;;;;;;;10.37;8.57;;;;;;;;;;5097748;28;20244;-84
2020/12/21 09:30:06;;;;;;;8.43;7.57;;;;;;;;;;5098884;28;20225;-84
2020/12/21 09:32:32;;;;;;;11.07;8.80;;;;;;;;;;5099078;28;20249;-84
2020/12/21 09:34:58;;;;;;;9.00;7.97;;;;;;;;;;5099102;28;20724;-84
2020/12/21 09:37:24;;;;;;;9.03;7.87;;;;;;;;;;5098869;28;20237;-85
2020/12/21 09:39:51;;;;;;;9.10;8.13;;;;;;;;;;5098495;28;20201;-84
2020/12/21 09:42:17;;;;;;;9.70;8.57;;;;;;;;;;5098657;28;20237;-85
2020/12/21 09:44:43;;;;;;;10.13;7.87;;;;;;;;;;5098639;28;20236;-85
2020/12/21 09:47:10;;;;;;;9.90;8.23;;;;;;;;;;5098616;28;20541;-83
2020/12/21 09:49:36;;;;;;;8.47;7.67;;;;;;;;;;5098499;28;20226;-83
2020/12/21 09:52:02;;;;;;;8.43;7.37;;;;;;;;;;5098628;28;20225;-82
2020/12/21 09:54:30;;;;;;;10.10;7.93;;;;;;;;;;5098564;28;20248;-83
2020/12/21 09:56:56;;;;;;;8.33;7.50;;;;;;;;;;5099018;28;20225;-82
2020/12/21 09:59:23;;;;;;;9.63;7.60;;;;;;;;;;5098873;28;20237;-80
2020/12/21 10:01:50;;;;;;;11.97;7.63;;;;;;;;;;5098575;28;20240;-83
2020/12/21 10:04:16;;;;;;;8.73;7.50;;;;;;;;;;5098758;28;20226;-83
2020/12/21 10:06:46;;;;;;;8.10;7.20;;;;;;;;;;5097585;28;20221;-81
2020/12/21 10:09:12;;;;;;;10.80;8.07;;;;;;;;;;5098874;28;20237;-82
2020/12/21 10:11:38;;;;;;;7.93;7.20;;;;;;;;;;5098433;28;20226;-81
2020/12/21 10:14:05;;;;;;;9.10;7.33;;;;;;;;;;5098871;28;20729;-81
2020/12/21 10:16:31;;;;;;;8.30;7.50;;;;;;;;;;5100609;28;20206;-83
2020/12/21 10:18:57;;;;;;;9.37;7.07;;;;;;;;;;5108796;28;20217;-86
2020/12/21 10:21:24;;;;;;;10.00;8.90;;;;;;;;;;5098138;28;20236;-83
2020/12/21 10:23:50;;;;;;;8.60;7.80;;;;;;;;;;5098221;28;20610;-83
2020/12/21 10:26:16;;;;;;;7.77;7.07;;;;;;;;;;5098180;28;20241;-83
2020/12/21 10:28:42;;;;;;;8.77;7.97;;;;;;;;;;5098041;28;20240;-84
2020/12/21 10:31:08;;;;;;;8.00;7.20;;;;;;;;;;5097036;28;20205;-82
2020/12/21 10:33:34;;;;;;;8.90;7.33;;;;;;;;;;5096404;28;20698;-84
2020/12/21 10:36:00;;;;;;;8.10;7.30;;;;;;;;;;5097888;28;20225;-81
2020/12/21 10:38:27;;;;;;;7.83;7.03;;;;;;;;;;5097917;28;20237;-84
2020/12/21 10:40:53;;;;;;;7.37;6.67;;;;;;;;;;5097503;28;20229;-83
2020/12/21 10:43:19;;;;;;;7.53;6.93;;;;;;;;;;5097674;28;20221;-84
2020/12/21 10:45:45;;;;;;;9.87;6.77;;;;;;;;;;5097585;28;20277;-82
2020/12/21 10:48:11;;;;;;;6.77;6.13;;;;;;;;;;5096845;28;20233;-83
2020/12/21 10:50:37;;;;;;;7.33;6.53;;;;;;;;;;5097529;28;20233;-84
2020/12/21 10:53:04;;;;;;;9.13;6.87;;;;;;;;;;5096733;28;20209;-84
2020/12/21 10:55:31;;;;;;;9.07;6.40;;;;;;;;;;5097644;28;20233;-83
2020/12/21 10:57:57;;;;;;;7.70;6.10;;;;;;;;;;5097417;28;20236;-83
2020/12/21 11:00:24;;;;;;;6.67;5.87;;;;;;;;;;5097478;28;20233;-82
2020/12/21 11:02:50;;;;;;;7.17;6.07;;;;;;;;;;5096965;28;20222;-83
2020/12/21 11:05:16;;;;;;;8.30;5.90;;;;;;;;;;5097470;28;20229;-83
2020/12/21 11:07:42;;;;;;;9.23;6.03;;;;;;;;;;5096967;28;20232;-84
2020/12/21 11:10:09;;;;;;;6.77;5.90;;;;;;;;;;5097133;28;20237;-81
2020/12/21 11:12:36;;;;;;;6.83;5.83;;;;;;;;;;5095942;28;20230;-83
2020/12/21 11:15:03;;;;;;;9.40;6.20;;;;;;;;;;5097212;28;20225;-82
2020/12/21 11:17:29;;;;;;;6.33;5.73;;;;;;;;;;5096614;28;20238;-83
2020/12/21 11:19:55;;;;;;;7.67;6.23;;;;;;;;;;5097126;28;20524;-83
2020/12/21 11:22:21;;;;;;;6.40;5.80;;;;;;;;;;5096860;28;20248;-81
2020/12/21 11:24:48;;;;;;;6.93;6.17;;;;;;;;;;5097068;28;20248;-82
2020/12/21 11:27:15;;;;;;;7.40;5.80;;;;;;;;;;5096351;28;20626;-84
2020/12/21 11:29:42;;;;;;;8.50;5.83;;;;;;;;;;5096654;28;20652;-84
2020/12/21 11:32:08;;;;;;;9.60;6.27;;;;;;;;;;5096252;28;20327;-82
2020/12/21 11:34:34;;;;;;;8.47;5.97;;;;;;;;;;5096199;28;20260;-84
2020/12/21 11:37:01;;;;;;;6.97;6.00;;;;;;;;;;5096398;28;20494;-84
2020/12/21 11:39:27;;;;;;;6.23;5.53;;;;;;;;;;5095782;28;20237;-84
2020/12/21 11:41:53;;;;;;;7.97;5.67;;;;;;;;;;5096651;28;20684;-84
2020/12/21 11:44:19;;;;;;;6.23;5.43;;;;;;;;;;5096317;28;20225;-84
2020/12/21 11:46:46;;;;;;;8.03;6.13;;;;;;;;;;5094230;28;20201;-83
2020/12/21 11:49:12;;;;;;;6.67;5.37;;;;;;;;;;5095740;28;20543;-84
2020/12/21 11:51:38;;;;;;;6.00;5.50;;;;;;;;;;5096843;28;20327;-83
2020/12/21 11:54:04;;;;;;;5.93;5.30;;;;;;;;;;5096309;28;20249;-82
2020/12/21 11:56:31;;;;;;;6.30;5.10;;;;;;;;;;5096286;28;20236;-85
2020/12/21 11:58:57;;;;;;;7.73;5.23;;;;;;;;;;5095902;28;20517;-83
2020/12/21 12:01:23;;;;;;;8.00;5.17;;;;;;;;;;5095173;28;20229;-84
2020/12/21 12:03:50;;;;;;;9.47;5.53;;;;;;;;;;5094617;28;20217;-87
2020/12/21 12:06:23;;;;;;;6.80;6.07;;;;;;;;;;5095507;28;20609;-82
2020/12/21 12:08:49;;;;;;;9.63;6.30;;;;;;;;;;5096177;28;20240;-83
2020/12/21 12:11:19;;;;;;;6.40;5.63;;;;;;;;;;5095685;28;20233;-82
2020/12/21 12:13:45;;;;;;;7.33;6.00;;;;;;;;;;5094855;28;20252;-81
2020/12/21 12:16:18;;;;;;;6.33;5.70;;;;;;;;;;5094322;28;20773;-82
2020/12/21 12:18:44;;;;;;;10.73;5.97;;;;;;;;;;5095109;28;20222;-84
2020/12/21 12:21:11;;;;;;;7.60;5.57;;;;;;;;;;5095427;28;20229;-83
2020/12/21 12:23:37;;;;;;;6.90;6.20;;;;;;;;;;5096061;28;20232;-82
2020/12/21 12:26:03;;;;;;;7.10;6.13;;;;;;;;;;5095384;28;20499;-83
2020/12/21 12:28:29;;;;;;;6.07;5.27;;;;;;;;;;5095829;28;20233;-83
2020/12/21 12:30:55;;;;;;;8.13;6.43;;;;;;;;;;5095713;28;20236;-83
2020/12/21 12:33:21;;;;;;;5.83;5.30;;;;;;;;;;5095379;28;20253;-86
2020/12/21 12:35:47;;;;;;;6.60;5.83;;;;;;;;;;5094683;28;20225;-81
2020/12/21 12:38:14;;;;;;;7.83;6.37;;;;;;;;;;5095368;28;20241;-83
2020/12/21 12:40:40;;;;;;;8.47;6.30;;;;;;;;;;5095607;28;20233;-83
2020/12/21 12:43:06;;;;;;;12.13;6.27;;;;;;;;;;5095739;28;20229;-82
2020/12/21 12:45:32;;;;;;;6.10;5.50;;;;;;;;;;5095468;28;20198;-83
2020/12/21 12:47:58;;;;;;;6.47;5.53;;;;;;;;;;5095455;28;20229;-82
2020/12/21 12:50:24;;;;;;;7.73;6.10;;;;;;;;;;5127818;27;20197;-82
2020/12/21 12:52:51;;;;;;;6.00;5.40;;;;;;;;;;5094785;28;20233;-82
2020/12/21 12:55:17;;;;;;;6.30;5.70;;;;;;;;;;5095321;28;20240;-82
2020/12/21 12:57:44;;;;;;;7.77;6.63;;;;;;;;;;5095404;28;20232;-82
2020/12/21 13:00:10;;;;;;;7.40;6.33;;;;;;;;;;5095283;28;20618;-82
2020/12/21 13:02:36;;;;;;;7.73;6.47;;;;;;;;;;5095238;28;20244;-81
2020/12/21 13:05:02;;;;;;;7.67;6.97;;;;;;;;;;5128156;27;20217;-82
2020/12/21 13:07:28;;;;;;;7.27;5.53;;;;;;;;;;5095302;28;20233;-82
2020/12/21 13:09:54;;;;;;;8.60;6.27;;;;;;;;;;5127979;27;20189;-82
2020/12/21 13:12:21;;;;;;;10.40;5.87;;;;;;;;;;5095317;28;20266;-82
2020/12/21 13:14:47;;;;;;;7.83;5.73;;;;;;;;;;5094686;28;20355;-83
2020/12/21 13:17:13;;;;;;;6.00;5.43;;;;;;;;;;5094913;28;20249;-83
2020/12/21 13:19:40;;;;;;;6.20;5.60;;;;;;;;;;5095181;28;20244;-81
2020/12/21 13:22:06;;;;;;;6.67;5.63;;;;;;;;;;5094343;28;20233;-81
2020/12/21 13:24:32;;;;;;;5.53;5.10;;;;;;;;;;5095563;28;20236;-82
2020/12/21 13:26:58;;;;;;;8.33;5.80;;;;;;;;;;5093710;28;20614;-83
2020/12/21 13:29:25;;;;;;;9.17;5.67;;;;;;;;;;5095333;28;20233;-82
2020/12/21 13:31:51;;;;;;;7.50;5.00;;;;;;;;;;5093841;28;20240;-83
2020/12/21 13:34:17;;;;;;;10.47;6.00;;;;;;;;;;5094481;28;20249;-82
2020/12/21 13:36:43;;;;;;;6.27;4.90;;;;;;;;;;5094391;28;20225;-81
2020/12/21 13:39:11;;;;;;;7.77;4.90;;;;;;;;;;5094871;28;20645;-82
2020/12/21 13:41:37;;;;;;;6.07;5.30;;;;;;;;;;5094328;28;20229;-80
2020/12/21 13:44:03;;;;;;;5.63;5.13;;;;;;;;;;5094807;28;20628;-82
2020/12/21 13:46:30;;;;;;;11.27;6.10;;;;;;;;;;5093941;28;20879;-81
2020/12/21 13:48:56;;;;;;;7.97;5.90;;;;;;;;;;5094140;28;20237;-81
2020/12/21 13:51:22;;;;;;;8.00;6.17;;;;;;;;;;5093664;28;20253;-81
2020/12/21 13:53:48;;;;;;;7.33;6.57;;;;;;;;;;5094209;28;20249;-81
2020/12/21 13:56:15;;;;;;;6.73;5.43;;;;;;;;;;5093717;28;20239;-81
2020/12/21 13:58:41;;;;;;;7.53;6.00;;;;;;;;;;5094409;28;20237;-82
2020/12/21 14:01:07;;;;;;;6.43;5.77;;;;;;;;;;5093425;28;20229;-83
2020/12/21 14:03:34;;;;;;;6.30;5.60;;;;;;;;;;5094171;28;20225;-82
2020/12/21 14:06:00;;;;;;;9.37;5.73;;;;;;;;;;5093926;28;20652;-83
2020/12/21 14:08:26;;;;;;;8.30;5.90;;;;;;;;;;5093558;28;20233;-81
2020/12/21 14:10:52;;;;;;;6.03;5.37;;;;;;;;;;5097227;28;20234;-81
2020/12/21 14:13:18;;;;;;;6.13;5.27;;;;;;;;;;5097125;28;20229;-83
2020/12/21 14:15:44;;;;;;;5.83;5.10;;;;;;;;;;5097663;28;20338;-83
2020/12/21 14:18:11;;;;;;;5.30;4.83;;;;;;;;;;5097544;28;20229;-82
2020/12/21 14:20:37;;;;;;;6.37;5.30;;;;;;;;;;5097929;28;20237;-83
2020/12/21 14:23:04;;;;;;;8.90;5.13;;;;;;;;;;5097397;28;20225;-81